sensor_id;sensor_type;location;lat;lon;timestamp;pressure;altitude;pressure_sealevel;temperature;humidity
19236;BME280;9752;54.270;12.470;2023-03-01T00:03:23;103466.84;;;-4.04;100.00
19236;BME280;9752;54.270;12.470;2023-03-01T00:08:25;103482.22;;;-3.87;100.00
19236;BME280;9752;54.270;12.470;2023-03-01T00:13:28;103476.25;;;-3.82;100.00
19236;BME280;9752;54.270;12.470;2023-03-01T00:18:30;103484.16;;;-3.75;100.00
19236;BME280;9752;54.270;12.470;2023-03-01T00:23:34;103490.56;;;-3.82;100.00
19236;BME280;9752;54.270;12.470;2023-03-01T00:28:37;103479.84;;;-3.91;100.00
19236;BME280;9752;54.270;12.470;2023-03-01T00:33:39;103481.78;;;-3.84;100.00
19236;BME280;9752;54.270;12.470;2023-03-01T00:38:42;103479.97;;;-3.80;100.00
19236;BME280;9752;54.270;12.470;2023-03-01T00:43:45;103489.19;;;-3.80;100.00
19236;BME280;9752;54.270;12.470;2023-03-01T00:48:47;103484.31;;;-3.84;100.00
19236;BME280;9752;54.270;12.470;2023-03-01T00:53:50;103476.72;;;-3.84;100.00
19236;BME280;9752;54.270;12.470;2023-03-01T00:58:54;103474.22;;;-3.79;100.00
19236;BME280;9752;54.270;12.470;2023-03-01T01:03:57;103465.81;;;-3.68;100.00
19236;BME280;9752;54.270;12.470;2023-03-01T01:09:00;103462.91;;;-3.81;100.00
19236;BME280;9752;54.270;12.470;2023-03-01T01:14:03;103451.34;;;-3.84;100.00
19236;BME280;9752;54.270;12.470;2023-03-01T01:19:05;103454.41;;;-3.76;100.00
19236;BME280;9752;54.270;12.470;2023-03-01T01:24:07;103442.97;;;-3.68;100.00
19236;BME280;9752;54.270;12.470;2023-03-01T01:29:10;103433.91;;;-3.77;100.00
19236;BME280;9752;54.270;12.470;2023-03-01T01:34:14;103429.28;;;-3.74;100.00
19236;BME280;9752;54.270;12.470;2023-03-01T01:39:16;103431.13;;;-3.79;100.00
19236;BME280;9752;54.270;12.470;2023-03-01T01:44:21;103439.06;;;-3.66;100.00
19236;BME280;9752;54.270;12.470;2023-03-01T01:49:28;103433.19;;;-3.49;100.00
19236;BME280;9752;54.270;12.470;2023-03-01T01:54:38;103435.91;;;-3.27;100.00
19236;BME280;9752;54.270;12.470;2023-03-01T01:59:47;103454.69;;;-3.09;100.00
19236;BME280;9752;54.270;12.470;2023-03-01T02:04:54;103446.41;;;-3.08;100.00
19236;BME280;9752;54.270;12.470;2023-03-01T02:10:00;103439.53;;;-2.98;100.00
19236;BME280;9752;54.270;12.470;2023-03-01T02:15:05;103445.06;;;-3.01;100.00
19236;BME280;9752;54.270;12.470;2023-03-01T02:20:14;103431.78;;;-3.21;100.00
19236;BME280;9752;54.270;12.470;2023-03-01T02:25:38;103421.03;;;-3.41;100.00
19236;BME280;9752;54.270;12.470;2023-03-01T02:30:45;103407.03;;;-3.65;100.00
19236;BME280;9752;54.270;12.470;2023-03-01T02:36:04;103406.00;;;-3.77;100.00
19236;BME280;9752;54.270;12.470;2023-03-01T02:41:08;103405.47;;;-3.86;100.00
19236;BME280;9752;54.270;12.470;2023-03-01T02:46:16;103401.31;;;-3.85;100.00
19236;BME280;9752;54.270;12.470;2023-03-01T02:51:27;103389.94;;;-3.93;100.00
19236;BME280;9752;54.270;12.470;2023-03-01T02:56:32;103386.78;;;-3.86;100.00
19236;BME280;9752;54.270;12.470;2023-03-01T03:01:36;103387.72;;;-3.86;100.00
19236;BME280;9752;54.270;12.470;2023-03-01T03:06:40;103389.06;;;-3.88;100.00
19236;BME280;9752;54.270;12.470;2023-03-01T03:11:42;103385.53;;;-3.73;100.00
19236;BME280;9752;54.270;12.470;2023-03-01T03:16:47;103382.16;;;-3.57;100.00
19236;BME280;9752;54.270;12.470;2023-03-01T03:21:51;103396.75;;;-3.50;100.00
19236;BME280;9752;54.270;12.470;2023-03-01T03:26:53;103380.72;;;-3.34;100.00
19236;BME280;9752;54.270;12.470;2023-03-01T03:31:56;103387.22;;;-3.30;100.00
19236;BME280;9752;54.270;12.470;2023-03-01T03:36:57;103383.44;;;-3.43;100.00
19236;BME280;9752;54.270;12.470;2023-03-01T03:42:07;103358.41;;;-3.57;100.00
19236;BME280;9752;54.270;12.470;2023-03-01T03:47:10;103362.78;;;-3.62;100.00
19236;BME280;9752;54.270;12.470;2023-03-01T03:52:12;103363.69;;;-3.61;100.00
19236;BME280;9752;54.270;12.470;2023-03-01T03:57:16;103360.63;;;-3.70;100.00
19236;BME280;9752;54.270;12.470;2023-03-01T04:02:17;103352.91;;;-3.55;100.00
19236;BME280;9752;54.270;12.470;2023-03-01T04:07:22;103350.97;;;-3.67;100.00
19236;BME280;9752;54.270;12.470;2023-03-01T04:12:25;103353.25;;;-3.68;100.00
19236;BME280;9752;54.270;12.470;2023-03-01T04:17:27;103358.16;;;-3.59;100.00
19236;BME280;9752;54.270;12.470;2023-03-01T04:22:28;103362.81;;;-3.56;100.00
19236;BME280;9752;54.270;12.470;2023-03-01T04:27:34;103361.41;;;-3.60;100.00
19236;BME280;9752;54.270;12.470;2023-03-01T04:32:36;103339.69;;;-3.63;100.00
19236;BME280;9752;54.270;12.470;2023-03-01T04:37:38;103330.19;;;-3.70;100.00
19236;BME280;9752;54.270;12.470;2023-03-01T04:42:43;103335.53;;;-3.63;100.00
19236;BME280;9752;54.270;12.470;2023-03-01T04:47:45;103336.31;;;-3.53;100.00
19236;BME280;9752;54.270;12.470;2023-03-01T04:52:47;103342.84;;;-3.43;100.00
19236;BME280;9752;54.270;12.470;2023-03-01T04:57:50;103343.03;;;-3.47;100.00
19236;BME280;9752;54.270;12.470;2023-03-01T05:02:54;103347.06;;;-3.27;100.00
19236;BME280;9752;54.270;12.470;2023-03-01T05:07:57;103349.81;;;-3.31;100.00
19236;BME280;9752;54.270;12.470;2023-03-01T05:13:02;103343.75;;;-3.43;100.00
19236;BME280;9752;54.270;12.470;2023-03-01T05:18:04;103343.75;;;-3.43;100.00
19236;BME280;9752;54.270;12.470;2023-03-01T05:23:11;103341.66;;;-3.45;100.00
19236;BME280;9752;54.270;12.470;2023-03-01T05:28:14;103342.47;;;-3.24;100.00
19236;BME280;9752;54.270;12.470;2023-03-01T05:33:16;103342.66;;;-2.84;100.00
19236;BME280;9752;54.270;12.470;2023-03-01T05:38:18;103357.81;;;-2.41;100.00
19236;BME280;9752;54.270;12.470;2023-03-01T05:43:21;103356.91;;;-1.79;100.00
19236;BME280;9752;54.270;12.470;2023-03-01T05:48:23;103353.44;;;-1.68;100.00
19236;BME280;9752;54.270;12.470;2023-03-01T05:53:24;103354.56;;;-1.49;100.00
19236;BME280;9752;54.270;12.470;2023-03-01T05:58:28;103357.06;;;-1.27;100.00
19236;BME280;9752;54.270;12.470;2023-03-01T06:03:29;103357.97;;;-1.15;100.00
19236;BME280;9752;54.270;12.470;2023-03-01T06:08:31;103345.88;;;-1.10;100.00
19236;BME280;9752;54.270;12.470;2023-03-01T06:13:34;103351.19;;;-1.03;100.00
19236;BME280;9752;54.270;12.470;2023-03-01T06:18:36;103345.16;;;-0.92;100.00
19236;BME280;9752;54.270;12.470;2023-03-01T06:23:39;103351.38;;;-0.90;100.00
19236;BME280;9752;54.270;12.470;2023-03-01T06:28:42;103357.72;;;-0.58;100.00
19236;BME280;9752;54.270;12.470;2023-03-01T06:33:46;103353.84;;;-0.32;100.00
19236;BME280;9752;54.270;12.470;2023-03-01T06:38:47;103373.66;;;-0.13;100.00
19236;BME280;9752;54.270;12.470;2023-03-01T06:43:51;103382.75;;;0.09;100.00
19236;BME280;9752;54.270;12.470;2023-03-01T06:48:52;103381.44;;;0.30;100.00
19236;BME280;9752;54.270;12.470;2023-03-01T06:53:54;103375.72;;;0.44;100.00
19236;BME280;9752;54.270;12.470;2023-03-01T06:58:57;103389.28;;;0.61;100.00
19236;BME280;9752;54.270;12.470;2023-03-01T07:03:59;103396.22;;;0.86;100.00
19236;BME280;9752;54.270;12.470;2023-03-01T07:09:00;103387.28;;;0.95;100.00
19236;BME280;9752;54.270;12.470;2023-03-01T07:14:04;103381.19;;;1.19;100.00
19236;BME280;9752;54.270;12.470;2023-03-01T07:19:07;103378.16;;;1.22;100.00
19236;BME280;9752;54.270;12.470;2023-03-01T07:24:09;103372.59;;;1.37;100.00
19236;BME280;9752;54.270;12.470;2023-03-01T07:29:12;103357.88;;;1.60;100.00
19236;BME280;9752;54.270;12.470;2023-03-01T07:34:14;103359.06;;;1.56;100.00
19236;BME280;9752;54.270;12.470;2023-03-01T07:39:16;103360.13;;;1.33;100.00
19236;BME280;9752;54.270;12.470;2023-03-01T07:44:19;103356.94;;;1.60;100.00
19236;BME280;9752;54.270;12.470;2023-03-01T07:49:20;103361.44;;;1.99;100.00
19236;BME280;9752;54.270;12.470;2023-03-01T07:54:22;103360.78;;;2.39;100.00
19236;BME280;9752;54.270;12.470;2023-03-01T07:59:25;103371.84;;;2.58;100.00
19236;BME280;9752;54.270;12.470;2023-03-01T08:04:29;103374.09;;;2.62;100.00
19236;BME280;9752;54.270;12.470;2023-03-01T08:09:31;103377.59;;;2.62;100.00
19236;BME280;9752;54.270;12.470;2023-03-01T08:14:34;103367.53;;;2.38;100.00
19236;BME280;9752;54.270;12.470;2023-03-01T08:19:36;103381.38;;;2.33;100.00
19236;BME280;9752;54.270;12.470;2023-03-01T08:24:37;103396.44;;;2.24;100.00
19236;BME280;9752;54.270;12.470;2023-03-01T08:29:40;103407.84;;;2.08;100.00
19236;BME280;9752;54.270;12.470;2023-03-01T08:34:42;103417.13;;;2.26;100.00
19236;BME280;9752;54.270;12.470;2023-03-01T08:39:44;103437.63;;;2.39;100.00
19236;BME280;9752;54.270;12.470;2023-03-01T08:44:46;103455.72;;;2.71;100.00
19236;BME280;9752;54.270;12.470;2023-03-01T08:49:49;103458.44;;;2.47;100.00
19236;BME280;9752;54.270;12.470;2023-03-01T08:54:51;103452.91;;;2.57;100.00
19236;BME280;9752;54.270;12.470;2023-03-01T08:59:54;103449.75;;;2.78;100.00
19236;BME280;9752;54.270;12.470;2023-03-01T09:04:56;103449.22;;;2.55;100.00
19236;BME280;9752;54.270;12.470;2023-03-01T09:09:58;103462.78;;;2.80;100.00
19236;BME280;9752;54.270;12.470;2023-03-01T09:15:01;103457.34;;;2.84;100.00
19236;BME280;9752;54.270;12.470;2023-03-01T09:20:03;103460.13;;;2.98;100.00
19236;BME280;9752;54.270;12.470;2023-03-01T09:25:06;103444.53;;;2.97;100.00
19236;BME280;9752;54.270;12.470;2023-03-01T09:30:11;103443.19;;;2.93;100.00
19236;BME280;9752;54.270;12.470;2023-03-01T09:35:13;103450.03;;;3.00;100.00
19236;BME280;9752;54.270;12.470;2023-03-01T09:40:18;103445.66;;;3.11;100.00
19236;BME280;9752;54.270;12.470;2023-03-01T09:45:27;103452.28;;;3.29;100.00
19236;BME280;9752;54.270;12.470;2023-03-01T09:50:35;103450.72;;;3.37;100.00
19236;BME280;9752;54.270;12.470;2023-03-01T09:55:39;103447.13;;;3.75;100.00
19236;BME280;9752;54.270;12.470;2023-03-01T10:00:48;103443.59;;;3.55;100.00
19236;BME280;9752;54.270;12.470;2023-03-01T10:05:56;103431.75;;;3.29;100.00
19236;BME280;9752;54.270;12.470;2023-03-01T10:11:00;103414.03;;;3.05;100.00
19236;BME280;9752;54.270;12.470;2023-03-01T10:16:11;103409.03;;;3.00;100.00
19236;BME280;9752;54.270;12.470;2023-03-01T10:21:17;103406.50;;;2.87;100.00
19236;BME280;9752;54.270;12.470;2023-03-01T10:26:34;103422.50;;;3.70;100.00
19236;BME280;9752;54.270;12.470;2023-03-01T10:31:43;103419.81;;;4.16;100.00
19236;BME280;9752;54.270;12.470;2023-03-01T10:36:48;103420.78;;;4.23;100.00
19236;BME280;9752;54.270;12.470;2023-03-01T10:41:59;103411.03;;;4.21;100.00
19236;BME280;9752;54.270;12.470;2023-03-01T10:47:02;103407.84;;;4.36;100.00
19236;BME280;9752;54.270;12.470;2023-03-01T10:52:16;103390.16;;;4.52;100.00
19236;BME280;9752;54.270;12.470;2023-03-01T10:57:29;103381.16;;;4.21;100.00
19236;BME280;9752;54.270;12.470;2023-03-01T11:02:33;103369.22;;;4.22;100.00
19236;BME280;9752;54.270;12.470;2023-03-01T11:07:47;103356.75;;;4.25;100.00
19236;BME280;9752;54.270;12.470;2023-03-01T11:12:50;103351.94;;;4.82;100.00
19236;BME280;9752;54.270;12.470;2023-03-01T11:17:54;103324.94;;;3.90;100.00
19236;BME280;9752;54.270;12.470;2023-03-01T11:22:59;103312.50;;;4.20;100.00
19236;BME280;9752;54.270;12.470;2023-03-01T11:28:04;103311.53;;;3.85;100.00
19236;BME280;9752;54.270;12.470;2023-03-01T11:33:17;103309.63;;;4.32;100.00
19236;BME280;9752;54.270;12.470;2023-03-01T11:38:22;103298.44;;;4.31;100.00
19236;BME280;9752;54.270;12.470;2023-03-01T11:43:33;103290.75;;;4.80;100.00
19236;BME280;9752;54.270;12.470;2023-03-01T11:48:47;103270.34;;;4.74;100.00
19236;BME280;9752;54.270;12.470;2023-03-01T11:54:03;103264.09;;;4.65;100.00
19236;BME280;9752;54.270;12.470;2023-03-01T11:59:27;103256.81;;;4.97;100.00
19236;BME280;9752;54.270;12.470;2023-03-01T12:04:54;103243.78;;;5.02;100.00
19236;BME280;9752;54.270;12.470;2023-03-01T12:10:22;103226.13;;;4.77;100.00
19236;BME280;9752;54.270;12.470;2023-03-01T12:15:51;103221.56;;;4.96;100.00
19236;BME280;9752;54.270;12.470;2023-03-01T12:21:07;103218.69;;;5.43;100.00
19236;BME280;9752;54.270;12.470;2023-03-01T12:26:29;103196.41;;;5.43;100.00
19236;BME280;9752;54.270;12.470;2023-03-01T12:31:58;103169.22;;;5.09;100.00
19236;BME280;9752;54.270;12.470;2023-03-01T12:37:25;103154.53;;;5.01;100.00
19236;BME280;9752;54.270;12.470;2023-03-01T12:42:35;103152.31;;;4.90;100.00
19236;BME280;9752;54.270;12.470;2023-03-01T12:47:54;103154.13;;;4.98;100.00
19236;BME280;9752;54.270;12.470;2023-03-01T12:52:59;103146.06;;;5.17;100.00
19236;BME280;9752;54.270;12.470;2023-03-01T12:58:07;103135.38;;;5.42;100.00
19236;BME280;9752;54.270;12.470;2023-03-01T13:03:22;103122.56;;;4.92;100.00
19236;BME280;9752;54.270;12.470;2023-03-01T13:08:31;103127.66;;;4.63;100.00
19236;BME280;9752;54.270;12.470;2023-03-01T13:13:36;103123.28;;;4.06;100.00
19236;BME280;9752;54.270;12.470;2023-03-01T13:18:38;103124.59;;;4.10;100.00
19236;BME280;9752;54.270;12.470;2023-03-01T13:23:47;103139.97;;;4.52;100.00
19236;BME280;9752;54.270;12.470;2023-03-01T13:28:56;103144.13;;;4.44;100.00
19236;BME280;9752;54.270;12.470;2023-03-01T13:34:01;103136.13;;;4.69;100.00
19236;BME280;9752;54.270;12.470;2023-03-01T13:39:27;103137.34;;;4.37;100.00
19236;BME280;9752;54.270;12.470;2023-03-01T13:44:33;103131.34;;;4.65;100.00
19236;BME280;9752;54.270;12.470;2023-03-01T13:49:44;103120.41;;;4.32;100.00
19236;BME280;9752;54.270;12.470;2023-03-01T13:54:49;103122.28;;;4.33;100.00
19236;BME280;9752;54.270;12.470;2023-03-01T13:59:51;103115.31;;;4.39;100.00
19236;BME280;9752;54.270;12.470;2023-03-01T14:04:57;103112.94;;;4.41;100.00
19236;BME280;9752;54.270;12.470;2023-03-01T14:10:02;103112.56;;;4.38;100.00
19236;BME280;9752;54.270;12.470;2023-03-01T14:15:10;103105.25;;;4.48;100.00
19236;BME280;9752;54.270;12.470;2023-03-01T14:20:20;103106.13;;;4.34;100.00
19236;BME280;9752;54.270;12.470;2023-03-01T14:25:28;103094.69;;;4.10;100.00
19236;BME280;9752;54.270;12.470;2023-03-01T14:30:34;103104.75;;;4.09;100.00
19236;BME280;9752;54.270;12.470;2023-03-01T14:35:36;103108.97;;;3.67;100.00
19236;BME280;9752;54.270;12.470;2023-03-01T14:40:40;103112.75;;;3.83;100.00
19236;BME280;9752;54.270;12.470;2023-03-01T14:45:47;103117.59;;;3.67;100.00
19236;BME280;9752;54.270;12.470;2023-03-01T14:50:50;103117.91;;;3.29;100.00
19236;BME280;9752;54.270;12.470;2023-03-01T14:55:55;103117.06;;;3.43;100.00
19236;BME280;9752;54.270;12.470;2023-03-01T15:00:59;103123.09;;;2.89;100.00
19236;BME280;9752;54.270;12.470;2023-03-01T15:06:03;103134.44;;;3.11;100.00
19236;BME280;9752;54.270;12.470;2023-03-01T15:11:19;103145.69;;;2.99;100.00
19236;BME280;9752;54.270;12.470;2023-03-01T15:16:24;103158.78;;;3.07;100.00
19236;BME280;9752;54.270;12.470;2023-03-01T15:21:30;103155.69;;;2.70;100.00
19236;BME280;9752;54.270;12.470;2023-03-01T15:26:37;103158.94;;;2.49;100.00
19236;BME280;9752;54.270;12.470;2023-03-01T15:31:41;103172.16;;;2.92;100.00
19236;BME280;9752;54.270;12.470;2023-03-01T15:36:44;103180.66;;;2.78;100.00
19236;BME280;9752;54.270;12.470;2023-03-01T15:41:48;103181.19;;;2.76;100.00
19236;BME280;9752;54.270;12.470;2023-03-01T15:46:49;103184.19;;;2.86;100.00
19236;BME280;9752;54.270;12.470;2023-03-01T15:51:53;103191.38;;;2.10;100.00
19236;BME280;9752;54.270;12.470;2023-03-01T15:56:57;103197.22;;;2.09;100.00
19236;BME280;9752;54.270;12.470;2023-03-01T16:01:59;103192.44;;;1.92;100.00
19236;BME280;9752;54.270;12.470;2023-03-01T16:07:01;103199.19;;;1.79;100.00
19236;BME280;9752;54.270;12.470;2023-03-01T16:12:06;103193.84;;;1.77;100.00
19236;BME280;9752;54.270;12.470;2023-03-01T16:17:10;103192.94;;;1.64;100.00
19236;BME280;9752;54.270;12.470;2023-03-01T16:22:12;103195.97;;;1.61;100.00
19236;BME280;9752;54.270;12.470;2023-03-01T16:27:15;103201.09;;;1.48;100.00
19236;BME280;9752;54.270;12.470;2023-03-01T16:32:17;103213.63;;;1.34;100.00
19236;BME280;9752;54.270;12.470;2023-03-01T16:37:18;103223.75;;;1.27;100.00
19236;BME280;9752;54.270;12.470;2023-03-01T16:42:23;103242.66;;;1.22;100.00
19236;BME280;9752;54.270;12.470;2023-03-01T16:47:25;103249.91;;;1.00;100.00
19236;BME280;9752;54.270;12.470;2023-03-01T16:52:27;103255.03;;;1.00;100.00
19236;BME280;9752;54.270;12.470;2023-03-01T16:57:30;103272.91;;;1.19;100.00
19236;BME280;9752;54.270;12.470;2023-03-01T17:02:32;103280.06;;;1.21;100.00
19236;BME280;9752;54.270;12.470;2023-03-01T17:07:34;103280.19;;;1.28;100.00
19236;BME280;9752;54.270;12.470;2023-03-01T17:12:38;103291.38;;;1.10;100.00
19236;BME280;9752;54.270;12.470;2023-03-01T17:17:40;103306.06;;;1.06;100.00
19236;BME280;9752;54.270;12.470;2023-03-01T17:22:41;103325.03;;;1.13;100.00
19236;BME280;9752;54.270;12.470;2023-03-01T17:27:45;103328.53;;;0.95;100.00
19236;BME280;9752;54.270;12.470;2023-03-01T17:32:46;103328.72;;;0.78;100.00
19236;BME280;9752;54.270;12.470;2023-03-01T17:37:48;103332.75;;;0.71;100.00
19236;BME280;9752;54.270;12.470;2023-03-01T17:42:51;103342.84;;;0.82;100.00
19236;BME280;9752;54.270;12.470;2023-03-01T17:47:53;103365.00;;;0.94;100.00
19236;BME280;9752;54.270;12.470;2023-03-01T17:52:55;103366.88;;;0.71;100.00
19236;BME280;9752;54.270;12.470;2023-03-01T17:57:58;103367.59;;;0.70;100.00
19236;BME280;9752;54.270;12.470;2023-03-01T18:03:00;103378.22;;;0.73;100.00
19236;BME280;9752;54.270;12.470;2023-03-01T18:08:02;103397.97;;;0.74;100.00
19236;BME280;9752;54.270;12.470;2023-03-01T18:13:06;103411.81;;;0.82;100.00
19236;BME280;9752;54.270;12.470;2023-03-01T18:18:07;103418.31;;;0.86;100.00
19236;BME280;9752;54.270;12.470;2023-03-01T18:23:09;103408.78;;;0.85;100.00
19236;BME280;9752;54.270;12.470;2023-03-01T18:28:12;103422.47;;;0.85;100.00
19236;BME280;9752;54.270;12.470;2023-03-01T18:33:14;103438.63;;;0.97;100.00
19236;BME280;9752;54.270;12.470;2023-03-01T18:38:16;103431.72;;;0.90;100.00
19236;BME280;9752;54.270;12.470;2023-03-01T18:43:19;103446.00;;;1.01;100.00
19236;BME280;9752;54.270;12.470;2023-03-01T18:48:21;103449.91;;;1.05;100.00
19236;BME280;9752;54.270;12.470;2023-03-01T18:53:22;103459.47;;;1.00;100.00
19236;BME280;9752;54.270;12.470;2023-03-01T18:58:26;103464.31;;;1.04;100.00
19236;BME280;9752;54.270;12.470;2023-03-01T19:03:28;103469.88;;;1.07;100.00
19236;BME280;9752;54.270;12.470;2023-03-01T19:08:29;103477.69;;;1.14;100.00
19236;BME280;9752;54.270;12.470;2023-03-01T19:13:34;103494.13;;;1.22;100.00
19236;BME280;9752;54.270;12.470;2023-03-01T19:18:37;103491.84;;;1.18;100.00
19236;BME280;9752;54.270;12.470;2023-03-01T19:23:40;103492.75;;;1.19;100.00
19236;BME280;9752;54.270;12.470;2023-03-01T19:28:43;103500.09;;;1.28;100.00
19236;BME280;9752;54.270;12.470;2023-03-01T19:33:45;103516.50;;;1.36;100.00
19236;BME280;9752;54.270;12.470;2023-03-01T19:38:47;103521.78;;;1.43;100.00
19236;BME280;9752;54.270;12.470;2023-03-01T19:43:50;103523.19;;;1.41;100.00
19236;BME280;9752;54.270;12.470;2023-03-01T19:48:53;103526.19;;;1.44;100.00
19236;BME280;9752;54.270;12.470;2023-03-01T19:53:54;103535.41;;;1.49;100.00
19236;BME280;9752;54.270;12.470;2023-03-01T19:58:58;103537.44;;;1.58;100.00
19236;BME280;9752;54.270;12.470;2023-03-01T20:04:03;103533.94;;;1.57;100.00
19236;BME280;9752;54.270;12.470;2023-03-01T20:09:06;103540.25;;;1.53;100.00
19236;BME280;9752;54.270;12.470;2023-03-01T20:14:10;103541.66;;;1.51;100.00
19236;BME280;9752;54.270;12.470;2023-03-01T20:19:12;103551.78;;;1.63;100.00
19236;BME280;9752;54.270;12.470;2023-03-01T20:24:14;103559.44;;;1.63;100.00
19236;BME280;9752;54.270;12.470;2023-03-01T20:29:17;103550.34;;;1.65;100.00
19236;BME280;9752;54.270;12.470;2023-03-01T20:34:19;103565.94;;;1.66;100.00
19236;BME280;9752;54.270;12.470;2023-03-01T20:39:21;103564.84;;;1.59;100.00
19236;BME280;9752;54.270;12.470;2023-03-01T20:44:29;103569.28;;;1.60;100.00
19236;BME280;9752;54.270;12.470;2023-03-01T20:49:30;103563.72;;;1.56;100.00
19236;BME280;9752;54.270;12.470;2023-03-01T20:54:32;103557.47;;;1.54;100.00
19236;BME280;9752;54.270;12.470;2023-03-01T20:59:35;103553.56;;;1.27;100.00
19236;BME280;9752;54.270;12.470;2023-03-01T21:04:37;103567.22;;;1.33;100.00
19236;BME280;9752;54.270;12.470;2023-03-01T21:09:39;103556.78;;;1.31;100.00
19236;BME280;9752;54.270;12.470;2023-03-01T21:14:45;103553.13;;;1.24;100.00
19236;BME280;9752;54.270;12.470;2023-03-01T21:19:47;103550.59;;;1.24;100.00
19236;BME280;9752;54.270;12.470;2023-03-01T21:24:50;103545.84;;;1.08;100.00
19236;BME280;9752;54.270;12.470;2023-03-01T21:29:53;103546.28;;;1.11;100.00
19236;BME280;9752;54.270;12.470;2023-03-01T21:34:55;103550.00;;;1.08;100.00
19236;BME280;9752;54.270;12.470;2023-03-01T21:39:58;103556.03;;;1.14;100.00
19236;BME280;9752;54.270;12.470;2023-03-01T21:45:02;103547.78;;;0.98;100.00
19236;BME280;9752;54.270;12.470;2023-03-01T21:50:04;103561.28;;;0.97;100.00
19236;BME280;9752;54.270;12.470;2023-03-01T21:55:08;103561.53;;;0.93;100.00
19236;BME280;9752;54.270;12.470;2023-03-01T22:05:17;103567.13;;;0.90;100.00
19236;BME280;9752;54.270;12.470;2023-03-01T22:10:19;103574.06;;;0.97;100.00
19236;BME280;9752;54.270;12.470;2023-03-01T22:15:28;103578.13;;;0.84;100.00
19236;BME280;9752;54.270;12.470;2023-03-01T22:20:30;103584.66;;;0.82;100.00
19236;BME280;9752;54.270;12.470;2023-03-01T22:25:32;103581.06;;;0.63;100.00
19236;BME280;9752;54.270;12.470;2023-03-01T22:30:35;103576.53;;;0.43;100.00
19236;BME280;9752;54.270;12.470;2023-03-01T22:35:40;103575.81;;;0.50;100.00
19236;BME280;9752;54.270;12.470;2023-03-01T22:40:41;103569.03;;;0.56;100.00
19236;BME280;9752;54.270;12.470;2023-03-01T22:45:44;103569.47;;;0.59;100.00
19236;BME280;9752;54.270;12.470;2023-03-01T22:50:47;103567.13;;;0.61;100.00
19236;BME280;9752;54.270;12.470;2023-03-01T22:55:49;103553.69;;;0.21;100.00
19236;BME280;9752;54.270;12.470;2023-03-01T23:00:52;103557.56;;;0.30;100.00
19236;BME280;9752;54.270;12.470;2023-03-01T23:05:54;103560.53;;;0.44;100.00
19236;BME280;9752;54.270;12.470;2023-03-01T23:10:55;103559.75;;;0.51;100.00
19236;BME280;9752;54.270;12.470;2023-03-01T23:15:59;103558.22;;;0.40;100.00
19236;BME280;9752;54.270;12.470;2023-03-01T23:21:06;103558.25;;;0.34;100.00
19236;BME280;9752;54.270;12.470;2023-03-01T23:26:08;103553.91;;;0.22;100.00
19236;BME280;9752;54.270;12.470;2023-03-01T23:31:13;103572.91;;;0.24;100.00
19236;BME280;9752;54.270;12.470;2023-03-01T23:36:17;103570.13;;;0.23;100.00
19236;BME280;9752;54.270;12.470;2023-03-01T23:41:21;103578.88;;;0.36;100.00
19236;BME280;9752;54.270;12.470;2023-03-01T23:46:27;103578.50;;;0.27;100.00
19236;BME280;9752;54.270;12.470;2023-03-01T23:51:29;103581.25;;;0.34;100.00
19236;BME280;9752;54.270;12.470;2023-03-01T23:56:32;103582.75;;;0.51;100.00
